sensor_id;sensor_type;location;lat;lon;timestamp;P1;durP1;ratioP1;P2;durP2;ratioP2
57667;SDS011;43499;52.366;12.912;2023-05-10T00:00:18;10.95;;;7.05;;
57667;SDS011;43499;52.366;12.912;2023-05-10T00:01:19;10.70;;;6.15;;
57667;SDS011;43499;52.366;12.912;2023-05-10T00:02:20;12.50;;;6.55;;
57667;SDS011;43499;52.366;12.912;2023-05-10T00:03:21;9.57;;;6.97;;
57667;SDS011;43499;52.366;12.912;2023-05-10T00:04:22;8.88;;;5.22;;
57667;SDS011;43499;52.366;12.912;2023-05-10T00:05:23;8.60;;;6.13;;
57667;SDS011;43499;52.366;12.912;2023-05-10T00:06:24;8.43;;;6.25;;
57667;SDS011;43499;52.366;12.912;2023-05-10T00:07:25;12.35;;;7.00;;
57667;SDS011;43499;52.366;12.912;2023-05-10T00:08:26;9.48;;;5.95;;
57667;SDS011;43499;52.366;12.912;2023-05-10T00:09:27;10.82;;;6.90;;
57667;SDS011;43499;52.366;12.912;2023-05-10T00:10:28;12.75;;;7.18;;
57667;SDS011;43499;52.366;12.912;2023-05-10T00:11:29;11.05;;;5.70;;
57667;SDS011;43499;52.366;12.912;2023-05-10T00:12:30;12.93;;;6.78;;
57667;SDS011;43499;52.366;12.912;2023-05-10T00:13:31;14.15;;;6.25;;
57667;SDS011;43499;52.366;12.912;2023-05-10T00:14:32;8.95;;;6.40;;
57667;SDS011;43499;52.366;12.912;2023-05-10T00:15:34;11.43;;;6.50;;
57667;SDS011;43499;52.366;12.912;2023-05-10T00:16:35;14.45;;;5.95;;
57667;SDS011;43499;52.366;12.912;2023-05-10T00:17:36;8.85;;;6.13;;
57667;SDS011;43499;52.366;12.912;2023-05-10T00:18:37;8.70;;;6.00;;
57667;SDS011;43499;52.366;12.912;2023-05-10T00:19:38;10.10;;;5.60;;
57667;SDS011;43499;52.366;12.912;2023-05-10T00:20:39;8.70;;;5.88;;
57667;SDS011;43499;52.366;12.912;2023-05-10T00:21:40;10.38;;;6.18;;
57667;SDS011;43499;52.366;12.912;2023-05-10T00:22:41;9.40;;;6.35;;
57667;SDS011;43499;52.366;12.912;2023-05-10T00:23:42;14.75;;;6.43;;
57667;SDS011;43499;52.366;12.912;2023-05-10T00:24:43;10.20;;;6.57;;
57667;SDS011;43499;52.366;12.912;2023-05-10T00:25:44;11.82;;;6.60;;
57667;SDS011;43499;52.366;12.912;2023-05-10T00:26:45;9.02;;;6.18;;
57667;SDS011;43499;52.366;12.912;2023-05-10T00:27:46;11.90;;;7.00;;
57667;SDS011;43499;52.366;12.912;2023-05-10T00:28:47;11.30;;;6.50;;
57667;SDS011;43499;52.366;12.912;2023-05-10T00:29:48;10.30;;;6.72;;
57667;SDS011;43499;52.366;12.912;2023-05-10T00:30:49;11.45;;;7.30;;
57667;SDS011;43499;52.366;12.912;2023-05-10T00:31:50;11.13;;;6.57;;
57667;SDS011;43499;52.366;12.912;2023-05-10T00:32:51;9.95;;;7.07;;
57667;SDS011;43499;52.366;12.912;2023-05-10T00:33:53;11.40;;;5.97;;
57667;SDS011;43499;52.366;12.912;2023-05-10T00:34:54;8.88;;;6.32;;
57667;SDS011;43499;52.366;12.912;2023-05-10T00:35:55;10.55;;;5.57;;
57667;SDS011;43499;52.366;12.912;2023-05-10T00:36:56;10.43;;;7.00;;
57667;SDS011;43499;52.366;12.912;2023-05-10T00:37:57;9.82;;;6.40;;
57667;SDS011;43499;52.366;12.912;2023-05-10T00:38:58;9.60;;;6.30;;
57667;SDS011;43499;52.366;12.912;2023-05-10T00:39:59;10.68;;;6.22;;
57667;SDS011;43499;52.366;12.912;2023-05-10T00:41:01;14.13;;;6.57;;
57667;SDS011;43499;52.366;12.912;2023-05-10T00:42:05;13.00;;;6.78;;
57667;SDS011;43499;52.366;12.912;2023-05-10T00:43:06;9.70;;;6.50;;
57667;SDS011;43499;52.366;12.912;2023-05-10T00:44:07;14.55;;;6.93;;
57667;SDS011;43499;52.366;12.912;2023-05-10T00:45:08;14.25;;;6.90;;
57667;SDS011;43499;52.366;12.912;2023-05-10T00:46:10;10.13;;;6.82;;
57667;SDS011;43499;52.366;12.912;2023-05-10T00:47:12;12.05;;;6.25;;
57667;SDS011;43499;52.366;12.912;2023-05-10T00:48:13;10.32;;;6.68;;
57667;SDS011;43499;52.366;12.912;2023-05-10T00:49:15;13.48;;;7.60;;
57667;SDS011;43499;52.366;12.912;2023-05-10T00:50:16;13.18;;;6.32;;
57667;SDS011;43499;52.366;12.912;2023-05-10T00:51:17;18.90;;;6.43;;
57667;SDS011;43499;52.366;12.912;2023-05-10T00:52:19;9.30;;;6.25;;
57667;SDS011;43499;52.366;12.912;2023-05-10T00:53:20;11.48;;;6.55;;
57667;SDS011;43499;52.366;12.912;2023-05-10T00:54:21;10.80;;;6.25;;
57667;SDS011;43499;52.366;12.912;2023-05-10T00:55:22;11.00;;;7.30;;
57667;SDS011;43499;52.366;12.912;2023-05-10T00:56:24;10.07;;;7.05;;
57667;SDS011;43499;52.366;12.912;2023-05-10T00:57:26;9.77;;;4.82;;
57667;SDS011;43499;52.366;12.912;2023-05-10T00:58:27;11.90;;;6.63;;
57667;SDS011;43499;52.366;12.912;2023-05-10T00:59:29;12.05;;;7.38;;
57667;SDS011;43499;52.366;12.912;2023-05-10T01:00:30;13.05;;;6.53;;
57667;SDS011;43499;52.366;12.912;2023-05-10T01:01:33;10.25;;;6.88;;
57667;SDS011;43499;52.366;12.912;2023-05-10T01:02:35;12.00;;;6.88;;
57667;SDS011;43499;52.366;12.912;2023-05-10T01:03:37;11.25;;;6.80;;
57667;SDS011;43499;52.366;12.912;2023-05-10T01:04:38;10.63;;;6.53;;
57667;SDS011;43499;52.366;12.912;2023-05-10T01:05:40;12.73;;;7.05;;
57667;SDS011;43499;52.366;12.912;2023-05-10T01:06:41;9.93;;;5.93;;
57667;SDS011;43499;52.366;12.912;2023-05-10T01:07:43;10.43;;;6.85;;
57667;SDS011;43499;52.366;12.912;2023-05-10T01:08:44;10.05;;;6.22;;
57667;SDS011;43499;52.366;12.912;2023-05-10T01:09:46;13.90;;;7.40;;
57667;SDS011;43499;52.366;12.912;2023-05-10T01:10:47;11.80;;;6.30;;
57667;SDS011;43499;52.366;12.912;2023-05-10T01:11:49;10.98;;;6.65;;
57667;SDS011;43499;52.366;12.912;2023-05-10T01:12:51;13.60;;;7.05;;
57667;SDS011;43499;52.366;12.912;2023-05-10T01:13:54;11.02;;;6.53;;
57667;SDS011;43499;52.366;12.912;2023-05-10T01:14:57;11.85;;;6.78;;
57667;SDS011;43499;52.366;12.912;2023-05-10T01:15:58;10.75;;;6.40;;
57667;SDS011;43499;52.366;12.912;2023-05-10T01:17:02;13.27;;;6.88;;
57667;SDS011;43499;52.366;12.912;2023-05-10T01:18:04;11.48;;;6.80;;
57667;SDS011;43499;52.366;12.912;2023-05-10T01:19:06;13.73;;;7.00;;
57667;SDS011;43499;52.366;12.912;2023-05-10T01:20:14;9.85;;;6.82;;
57667;SDS011;43499;52.366;12.912;2023-05-10T01:21:23;13.77;;;7.85;;
57667;SDS011;43499;52.366;12.912;2023-05-10T01:25:11;9.98;;;5.97;;
57667;SDS011;43499;52.366;12.912;2023-05-10T01:26:57;10.32;;;6.90;;
57667;SDS011;43499;52.366;12.912;2023-05-10T01:29:42;11.25;;;6.25;;
57667;SDS011;43499;52.366;12.912;2023-05-10T01:32:52;12.40;;;6.55;;
57667;SDS011;43499;52.366;12.912;2023-05-10T01:33:59;11.25;;;6.65;;
57667;SDS011;43499;52.366;12.912;2023-05-10T01:35:06;13.43;;;6.65;;
57667;SDS011;43499;52.366;12.912;2023-05-10T01:36:27;13.07;;;7.47;;
57667;SDS011;43499;52.366;12.912;2023-05-10T01:37:36;18.48;;;8.07;;
57667;SDS011;43499;52.366;12.912;2023-05-10T01:38:59;11.98;;;7.20;;
57667;SDS011;43499;52.366;12.912;2023-05-10T01:40:13;9.45;;;6.50;;
57667;SDS011;43499;52.366;12.912;2023-05-10T01:41:25;14.73;;;7.55;;
57667;SDS011;43499;52.366;12.912;2023-05-10T01:42:44;10.15;;;6.28;;
57667;SDS011;43499;52.366;12.912;2023-05-10T01:47:12;14.73;;;6.38;;
57667;SDS011;43499;52.366;12.912;2023-05-10T01:48:16;13.80;;;7.63;;
57667;SDS011;43499;52.366;12.912;2023-05-10T01:49:23;7.95;;;5.40;;
57667;SDS011;43499;52.366;12.912;2023-05-10T01:50:27;12.75;;;6.90;;
57667;SDS011;43499;52.366;12.912;2023-05-10T01:51:31;8.32;;;5.40;;
57667;SDS011;43499;52.366;12.912;2023-05-10T01:52:42;7.22;;;5.03;;
57667;SDS011;43499;52.366;12.912;2023-05-10T01:53:48;11.57;;;7.45;;
57667;SDS011;43499;52.366;12.912;2023-05-10T01:54:53;8.20;;;5.45;;
57667;SDS011;43499;52.366;12.912;2023-05-10T01:55:58;15.00;;;6.80;;
57667;SDS011;43499;52.366;12.912;2023-05-10T01:57:05;16.88;;;7.47;;
57667;SDS011;43499;52.366;12.912;2023-05-10T01:58:11;9.95;;;5.85;;
57667;SDS011;43499;52.366;12.912;2023-05-10T01:59:16;10.10;;;6.68;;
57667;SDS011;43499;52.366;12.912;2023-05-10T02:00:19;9.90;;;5.93;;
57667;SDS011;43499;52.366;12.912;2023-05-10T02:01:20;15.43;;;6.20;;
57667;SDS011;43499;52.366;12.912;2023-05-10T02:02:22;12.38;;;7.25;;
57667;SDS011;43499;52.366;12.912;2023-05-10T02:03:25;16.67;;;7.53;;
57667;SDS011;43499;52.366;12.912;2023-05-10T02:04:28;8.25;;;5.60;;
57667;SDS011;43499;52.366;12.912;2023-05-10T02:05:30;12.00;;;7.60;;
57667;SDS011;43499;52.366;12.912;2023-05-10T02:06:33;19.15;;;8.25;;
57667;SDS011;43499;52.366;12.912;2023-05-10T02:07:35;10.93;;;6.38;;
57667;SDS011;43499;52.366;12.912;2023-05-10T02:08:37;9.93;;;6.53;;
57667;SDS011;43499;52.366;12.912;2023-05-10T02:09:40;15.23;;;7.38;;
57667;SDS011;43499;52.366;12.912;2023-05-10T02:10:45;13.05;;;7.50;;
57667;SDS011;43499;52.366;12.912;2023-05-10T02:11:48;12.32;;;7.80;;
57667;SDS011;43499;52.366;12.912;2023-05-10T02:12:50;13.30;;;7.78;;
57667;SDS011;43499;52.366;12.912;2023-05-10T02:13:53;11.63;;;7.80;;
57667;SDS011;43499;52.366;12.912;2023-05-10T02:14:59;13.70;;;7.80;;
57667;SDS011;43499;52.366;12.912;2023-05-10T02:16:03;10.77;;;6.72;;
57667;SDS011;43499;52.366;12.912;2023-05-10T02:17:07;13.85;;;8.38;;
57667;SDS011;43499;52.366;12.912;2023-05-10T02:18:10;12.00;;;7.03;;
57667;SDS011;43499;52.366;12.912;2023-05-10T02:19:12;15.45;;;8.27;;
57667;SDS011;43499;52.366;12.912;2023-05-10T02:20:15;13.98;;;8.77;;
57667;SDS011;43499;52.366;12.912;2023-05-10T02:21:17;12.95;;;8.70;;
57667;SDS011;43499;52.366;12.912;2023-05-10T02:22:20;14.68;;;8.35;;
57667;SDS011;43499;52.366;12.912;2023-05-10T02:23:23;14.90;;;6.28;;
57667;SDS011;43499;52.366;12.912;2023-05-10T02:24:24;13.73;;;8.05;;
57667;SDS011;43499;52.366;12.912;2023-05-10T02:25:26;8.40;;;5.97;;
57667;SDS011;43499;52.366;12.912;2023-05-10T02:26:28;15.05;;;7.45;;
57667;SDS011;43499;52.366;12.912;2023-05-10T02:27:30;14.95;;;8.68;;
57667;SDS011;43499;52.366;12.912;2023-05-10T02:28:31;15.02;;;8.52;;
57667;SDS011;43499;52.366;12.912;2023-05-10T02:29:34;16.48;;;8.70;;
57667;SDS011;43499;52.366;12.912;2023-05-10T02:30:37;16.02;;;6.90;;
57667;SDS011;43499;52.366;12.912;2023-05-10T02:31:38;10.73;;;7.10;;
57667;SDS011;43499;52.366;12.912;2023-05-10T02:32:39;18.15;;;8.75;;
57667;SDS011;43499;52.366;12.912;2023-05-10T02:33:42;14.55;;;7.15;;
57667;SDS011;43499;52.366;12.912;2023-05-10T02:34:45;14.38;;;9.02;;
57667;SDS011;43499;52.366;12.912;2023-05-10T02:35:52;14.52;;;7.88;;
57667;SDS011;43499;52.366;12.912;2023-05-10T02:36:54;13.80;;;8.32;;
57667;SDS011;43499;52.366;12.912;2023-05-10T02:37:56;14.55;;;8.48;;
57667;SDS011;43499;52.366;12.912;2023-05-10T02:38:59;18.75;;;9.15;;
57667;SDS011;43499;52.366;12.912;2023-05-10T02:40:02;13.73;;;6.90;;
57667;SDS011;43499;52.366;12.912;2023-05-10T02:41:05;15.57;;;8.48;;
57667;SDS011;43499;52.366;12.912;2023-05-10T02:42:08;12.98;;;7.97;;
57667;SDS011;43499;52.366;12.912;2023-05-10T02:43:14;11.55;;;7.63;;
57667;SDS011;43499;52.366;12.912;2023-05-10T02:44:18;11.15;;;8.20;;
57667;SDS011;43499;52.366;12.912;2023-05-10T02:45:21;11.70;;;7.05;;
57667;SDS011;43499;52.366;12.912;2023-05-10T02:46:26;12.75;;;8.13;;
57667;SDS011;43499;52.366;12.912;2023-05-10T02:47:30;15.23;;;7.85;;
57667;SDS011;43499;52.366;12.912;2023-05-10T02:48:31;16.30;;;8.43;;
57667;SDS011;43499;52.366;12.912;2023-05-10T02:49:32;15.02;;;8.52;;
57667;SDS011;43499;52.366;12.912;2023-05-10T02:50:35;16.35;;;8.90;;
57667;SDS011;43499;52.366;12.912;2023-05-10T02:51:40;13.90;;;8.30;;
57667;SDS011;43499;52.366;12.912;2023-05-10T02:52:46;18.80;;;9.35;;
57667;SDS011;43499;52.366;12.912;2023-05-10T02:53:48;11.98;;;8.13;;
57667;SDS011;43499;52.366;12.912;2023-05-10T02:54:52;12.60;;;8.07;;
57667;SDS011;43499;52.366;12.912;2023-05-10T02:55:57;17.75;;;9.77;;
57667;SDS011;43499;52.366;12.912;2023-05-10T02:57:04;11.93;;;6.40;;
57667;SDS011;43499;52.366;12.912;2023-05-10T02:58:06;18.52;;;9.95;;
57667;SDS011;43499;52.366;12.912;2023-05-10T02:59:07;16.27;;;10.38;;
57667;SDS011;43499;52.366;12.912;2023-05-10T03:00:08;11.80;;;7.95;;
57667;SDS011;43499;52.366;12.912;2023-05-10T03:01:09;12.82;;;9.00;;
57667;SDS011;43499;52.366;12.912;2023-05-10T03:02:11;15.73;;;9.23;;
57667;SDS011;43499;52.366;12.912;2023-05-10T03:03:13;12.38;;;8.50;;
57667;SDS011;43499;52.366;12.912;2023-05-10T03:04:14;17.92;;;8.90;;
57667;SDS011;43499;52.366;12.912;2023-05-10T03:05:15;10.80;;;7.22;;
57667;SDS011;43499;52.366;12.912;2023-05-10T03:06:16;10.43;;;7.75;;
57667;SDS011;43499;52.366;12.912;2023-05-10T03:07:17;13.50;;;8.07;;
57667;SDS011;43499;52.366;12.912;2023-05-10T03:08:22;16.60;;;8.25;;
57667;SDS011;43499;52.366;12.912;2023-05-10T03:09:24;14.95;;;9.07;;
57667;SDS011;43499;52.366;12.912;2023-05-10T03:10:27;16.10;;;9.05;;
57667;SDS011;43499;52.366;12.912;2023-05-10T03:11:35;19.33;;;7.78;;
57667;SDS011;43499;52.366;12.912;2023-05-10T03:14:08;16.92;;;10.05;;
57667;SDS011;43499;52.366;12.912;2023-05-10T03:16:45;17.40;;;8.93;;
57667;SDS011;43499;52.366;12.912;2023-05-10T03:18:00;12.38;;;8.48;;
57667;SDS011;43499;52.366;12.912;2023-05-10T03:20:25;16.60;;;8.77;;
57667;SDS011;43499;52.366;12.912;2023-05-10T03:21:31;13.95;;;9.10;;
57667;SDS011;43499;52.366;12.912;2023-05-10T03:22:37;14.95;;;8.48;;
57667;SDS011;43499;52.366;12.912;2023-05-10T03:23:43;15.32;;;8.65;;
57667;SDS011;43499;52.366;12.912;2023-05-10T03:24:48;12.10;;;6.45;;
57667;SDS011;43499;52.366;12.912;2023-05-10T03:25:50;20.98;;;8.70;;
57667;SDS011;43499;52.366;12.912;2023-05-10T03:26:51;16.35;;;10.60;;
57667;SDS011;43499;52.366;12.912;2023-05-10T03:27:56;17.08;;;9.48;;
57667;SDS011;43499;52.366;12.912;2023-05-10T03:28:59;16.20;;;9.57;;
57667;SDS011;43499;52.366;12.912;2023-05-10T03:30:01;14.63;;;9.35;;
57667;SDS011;43499;52.366;12.912;2023-05-10T03:31:06;16.80;;;8.07;;
57667;SDS011;43499;52.366;12.912;2023-05-10T03:32:08;13.55;;;8.05;;
57667;SDS011;43499;52.366;12.912;2023-05-10T03:33:09;13.18;;;7.35;;
57667;SDS011;43499;52.366;12.912;2023-05-10T03:34:14;11.30;;;7.13;;
57667;SDS011;43499;52.366;12.912;2023-05-10T03:35:16;20.45;;;10.65;;
57667;SDS011;43499;52.366;12.912;2023-05-10T03:36:17;15.13;;;8.52;;
57667;SDS011;43499;52.366;12.912;2023-05-10T03:37:19;13.13;;;7.63;;
57667;SDS011;43499;52.366;12.912;2023-05-10T03:38:20;10.50;;;7.25;;
57667;SDS011;43499;52.366;12.912;2023-05-10T03:39:21;15.73;;;9.02;;
57667;SDS011;43499;52.366;12.912;2023-05-10T03:40:26;16.92;;;8.98;;
57667;SDS011;43499;52.366;12.912;2023-05-10T03:41:29;14.60;;;8.93;;
57667;SDS011;43499;52.366;12.912;2023-05-10T03:42:30;12.18;;;7.45;;
57667;SDS011;43499;52.366;12.912;2023-05-10T03:43:31;15.20;;;9.00;;
57667;SDS011;43499;52.366;12.912;2023-05-10T03:44:32;17.13;;;9.60;;
57667;SDS011;43499;52.366;12.912;2023-05-10T03:45:34;13.77;;;7.93;;
57667;SDS011;43499;52.366;12.912;2023-05-10T03:46:35;17.50;;;10.10;;
57667;SDS011;43499;52.366;12.912;2023-05-10T03:47:37;15.30;;;7.95;;
57667;SDS011;43499;52.366;12.912;2023-05-10T03:48:38;19.73;;;10.45;;
57667;SDS011;43499;52.366;12.912;2023-05-10T03:49:39;18.55;;;9.15;;
57667;SDS011;43499;52.366;12.912;2023-05-10T03:50:40;17.05;;;10.20;;
57667;SDS011;43499;52.366;12.912;2023-05-10T03:51:41;15.52;;;8.88;;
57667;SDS011;43499;52.366;12.912;2023-05-10T03:52:42;12.02;;;6.90;;
57667;SDS011;43499;52.366;12.912;2023-05-10T03:53:44;18.85;;;10.45;;
57667;SDS011;43499;52.366;12.912;2023-05-10T03:54:45;15.73;;;10.10;;
57667;SDS011;43499;52.366;12.912;2023-05-10T03:55:46;16.23;;;8.00;;
57667;SDS011;43499;52.366;12.912;2023-05-10T03:56:47;18.85;;;9.60;;
57667;SDS011;43499;52.366;12.912;2023-05-10T03:57:52;14.05;;;9.05;;
57667;SDS011;43499;52.366;12.912;2023-05-10T03:58:56;19.25;;;9.55;;
57667;SDS011;43499;52.366;12.912;2023-05-10T03:59:57;17.02;;;9.50;;
57667;SDS011;43499;52.366;12.912;2023-05-10T04:00:59;15.45;;;9.30;;
57667;SDS011;43499;52.366;12.912;2023-05-10T04:02:00;18.00;;;9.93;;
57667;SDS011;43499;52.366;12.912;2023-05-10T04:03:01;14.57;;;8.13;;
57667;SDS011;43499;52.366;12.912;2023-05-10T04:04:02;18.27;;;10.57;;
57667;SDS011;43499;52.366;12.912;2023-05-10T04:05:05;13.27;;;8.40;;
57667;SDS011;43499;52.366;12.912;2023-05-10T04:06:07;18.92;;;10.70;;
57667;SDS011;43499;52.366;12.912;2023-05-10T04:07:09;18.73;;;8.63;;
57667;SDS011;43499;52.366;12.912;2023-05-10T04:08:11;18.08;;;11.50;;
57667;SDS011;43499;52.366;12.912;2023-05-10T04:09:12;19.02;;;11.27;;
57667;SDS011;43499;52.366;12.912;2023-05-10T04:10:13;18.55;;;11.52;;
57667;SDS011;43499;52.366;12.912;2023-05-10T04:11:14;16.42;;;9.65;;
57667;SDS011;43499;52.366;12.912;2023-05-10T04:12:15;22.95;;;12.15;;
57667;SDS011;43499;52.366;12.912;2023-05-10T04:13:17;23.90;;;10.90;;
57667;SDS011;43499;52.366;12.912;2023-05-10T04:14:18;18.98;;;11.57;;
57667;SDS011;43499;52.366;12.912;2023-05-10T04:15:19;27.58;;;12.48;;
57667;SDS011;43499;52.366;12.912;2023-05-10T04:16:20;24.00;;;11.80;;
57667;SDS011;43499;52.366;12.912;2023-05-10T04:17:21;18.35;;;10.73;;
57667;SDS011;43499;52.366;12.912;2023-05-10T04:18:22;24.92;;;11.25;;
57667;SDS011;43499;52.366;12.912;2023-05-10T04:19:23;17.80;;;11.13;;
57667;SDS011;43499;52.366;12.912;2023-05-10T04:20:24;23.70;;;11.13;;
57667;SDS011;43499;52.366;12.912;2023-05-10T04:21:25;18.95;;;9.90;;
57667;SDS011;43499;52.366;12.912;2023-05-10T04:22:26;19.40;;;11.02;;
57667;SDS011;43499;52.366;12.912;2023-05-10T04:23:28;19.08;;;10.77;;
57667;SDS011;43499;52.366;12.912;2023-05-10T04:24:29;21.58;;;11.98;;
57667;SDS011;43499;52.366;12.912;2023-05-10T04:25:30;19.67;;;10.63;;
57667;SDS011;43499;52.366;12.912;2023-05-10T04:26:34;18.27;;;9.98;;
57667;SDS011;43499;52.366;12.912;2023-05-10T04:27:35;21.50;;;11.00;;
57667;SDS011;43499;52.366;12.912;2023-05-10T04:28:36;21.30;;;11.27;;
57667;SDS011;43499;52.366;12.912;2023-05-10T04:29:37;18.63;;;10.32;;
57667;SDS011;43499;52.366;12.912;2023-05-10T04:30:39;19.25;;;11.43;;
57667;SDS011;43499;52.366;12.912;2023-05-10T04:31:40;22.50;;;9.48;;
57667;SDS011;43499;52.366;12.912;2023-05-10T04:32:41;19.90;;;11.43;;
57667;SDS011;43499;52.366;12.912;2023-05-10T04:33:42;15.15;;;10.00;;
57667;SDS011;43499;52.366;12.912;2023-05-10T04:34:43;18.77;;;11.50;;
57667;SDS011;43499;52.366;12.912;2023-05-10T04:35:44;16.95;;;8.30;;
57667;SDS011;43499;52.366;12.912;2023-05-10T04:36:45;14.55;;;9.10;;
57667;SDS011;43499;52.366;12.912;2023-05-10T04:37:46;15.38;;;10.57;;
57667;SDS011;43499;52.366;12.912;2023-05-10T04:38:47;19.48;;;11.00;;
57667;SDS011;43499;52.366;12.912;2023-05-10T04:39:48;18.35;;;9.95;;
57667;SDS011;43499;52.366;12.912;2023-05-10T04:40:49;19.73;;;10.88;;
57667;SDS011;43499;52.366;12.912;2023-05-10T04:41:51;22.90;;;10.52;;
57667;SDS011;43499;52.366;12.912;2023-05-10T04:42:52;17.75;;;10.27;;
57667;SDS011;43499;52.366;12.912;2023-05-10T04:43:53;15.65;;;10.30;;
57667;SDS011;43499;52.366;12.912;2023-05-10T04:44:54;18.90;;;11.52;;
57667;SDS011;43499;52.366;12.912;2023-05-10T04:45:56;22.95;;;12.25;;
57667;SDS011;43499;52.366;12.912;2023-05-10T04:46:57;16.33;;;10.40;;
57667;SDS011;43499;52.366;12.912;2023-05-10T04:47:58;20.05;;;11.05;;
57667;SDS011;43499;52.366;12.912;2023-05-10T04:48:59;18.30;;;10.85;;
57667;SDS011;43499;52.366;12.912;2023-05-10T04:50:00;18.27;;;10.63;;
57667;SDS011;43499;52.366;12.912;2023-05-10T04:51:01;17.30;;;10.70;;
57667;SDS011;43499;52.366;12.912;2023-05-10T04:52:04;18.48;;;10.13;;
57667;SDS011;43499;52.366;12.912;2023-05-10T04:53:05;17.70;;;10.45;;
57667;SDS011;43499;52.366;12.912;2023-05-10T04:54:06;22.85;;;11.65;;
57667;SDS011;43499;52.366;12.912;2023-05-10T04:55:07;14.88;;;10.00;;
57667;SDS011;43499;52.366;12.912;2023-05-10T04:56:10;15.60;;;10.88;;
57667;SDS011;43499;52.366;12.912;2023-05-10T04:57:11;24.33;;;9.18;;
57667;SDS011;43499;52.366;12.912;2023-05-10T04:58:12;30.30;;;11.65;;
57667;SDS011;43499;52.366;12.912;2023-05-10T04:59:13;21.67;;;11.07;;
57667;SDS011;43499;52.366;12.912;2023-05-10T05:00:14;20.48;;;11.02;;
57667;SDS011;43499;52.366;12.912;2023-05-10T05:01:15;17.00;;;11.15;;
57667;SDS011;43499;52.366;12.912;2023-05-10T05:02:16;16.90;;;10.38;;
57667;SDS011;43499;52.366;12.912;2023-05-10T05:03:17;19.38;;;10.27;;
57667;SDS011;43499;52.366;12.912;2023-05-10T05:04:18;21.35;;;11.32;;
57667;SDS011;43499;52.366;12.912;2023-05-10T05:05:19;22.25;;;11.05;;
57667;SDS011;43499;52.366;12.912;2023-05-10T05:06:20;23.35;;;11.23;;
57667;SDS011;43499;52.366;12.912;2023-05-10T05:07:21;18.70;;;10.68;;
57667;SDS011;43499;52.366;12.912;2023-05-10T05:08:22;19.25;;;9.55;;
57667;SDS011;43499;52.366;12.912;2023-05-10T05:09:24;20.50;;;11.40;;
57667;SDS011;43499;52.366;12.912;2023-05-10T05:10:25;19.70;;;9.95;;
57667;SDS011;43499;52.366;12.912;2023-05-10T05:11:26;15.57;;;9.48;;
57667;SDS011;43499;52.366;12.912;2023-05-10T05:12:27;16.65;;;9.75;;
57667;SDS011;43499;52.366;12.912;2023-05-10T05:13:28;17.65;;;9.98;;
57667;SDS011;43499;52.366;12.912;2023-05-10T05:14:29;20.83;;;11.32;;
57667;SDS011;43499;52.366;12.912;2023-05-10T05:15:30;29.27;;;10.35;;
57667;SDS011;43499;52.366;12.912;2023-05-10T05:16:31;22.73;;;12.25;;
57667;SDS011;43499;52.366;12.912;2023-05-10T05:17:33;15.93;;;10.13;;
57667;SDS011;43499;52.366;12.912;2023-05-10T05:18:34;17.48;;;9.85;;
57667;SDS011;43499;52.366;12.912;2023-05-10T05:19:35;25.10;;;12.15;;
57667;SDS011;43499;52.366;12.912;2023-05-10T05:20:36;19.23;;;10.27;;
57667;SDS011;43499;52.366;12.912;2023-05-10T05:21:37;18.77;;;11.02;;
57667;SDS011;43499;52.366;12.912;2023-05-10T05:22:38;18.90;;;10.82;;
57667;SDS011;43499;52.366;12.912;2023-05-10T05:23:39;19.88;;;10.32;;
57667;SDS011;43499;52.366;12.912;2023-05-10T05:24:40;22.73;;;10.80;;
57667;SDS011;43499;52.366;12.912;2023-05-10T05:25:41;16.40;;;10.00;;
57667;SDS011;43499;52.366;12.912;2023-05-10T05:26:42;19.45;;;10.88;;
57667;SDS011;43499;52.366;12.912;2023-05-10T05:27:43;19.98;;;11.18;;
57667;SDS011;43499;52.366;12.912;2023-05-10T05:28:44;17.63;;;9.63;;
57667;SDS011;43499;52.366;12.912;2023-05-10T05:29:45;15.60;;;10.05;;
57667;SDS011;43499;52.366;12.912;2023-05-10T05:30:46;30.20;;;10.82;;
57667;SDS011;43499;52.366;12.912;2023-05-10T05:31:48;19.75;;;10.82;;
57667;SDS011;43499;52.366;12.912;2023-05-10T05:32:49;17.33;;;10.00;;
57667;SDS011;43499;52.366;12.912;2023-05-10T05:33:50;14.45;;;10.07;;
57667;SDS011;43499;52.366;12.912;2023-05-10T05:34:51;24.50;;;10.82;;
57667;SDS011;43499;52.366;12.912;2023-05-10T05:35:52;17.48;;;10.15;;
57667;SDS011;43499;52.366;12.912;2023-05-10T05:36:53;16.40;;;9.85;;
57667;SDS011;43499;52.366;12.912;2023-05-10T05:37:54;18.45;;;10.35;;
57667;SDS011;43499;52.366;12.912;2023-05-10T05:38:56;19.38;;;9.90;;
57667;SDS011;43499;52.366;12.912;2023-05-10T05:39:58;14.80;;;10.05;;
57667;SDS011;43499;52.366;12.912;2023-05-10T05:40:59;16.58;;;10.57;;
57667;SDS011;43499;52.366;12.912;2023-05-10T05:42:00;18.92;;;9.85;;
57667;SDS011;43499;52.366;12.912;2023-05-10T05:43:01;16.55;;;9.75;;
57667;SDS011;43499;52.366;12.912;2023-05-10T05:44:02;20.08;;;11.00;;
57667;SDS011;43499;52.366;12.912;2023-05-10T05:45:03;18.38;;;9.80;;
57667;SDS011;43499;52.366;12.912;2023-05-10T05:46:05;22.23;;;11.30;;
57667;SDS011;43499;52.366;12.912;2023-05-10T05:47:06;17.00;;;10.32;;
57667;SDS011;43499;52.366;12.912;2023-05-10T05:48:07;16.83;;;10.63;;
57667;SDS011;43499;52.366;12.912;2023-05-10T05:49:08;18.20;;;9.88;;
57667;SDS011;43499;52.366;12.912;2023-05-10T05:50:09;15.60;;;10.23;;
57667;SDS011;43499;52.366;12.912;2023-05-10T05:51:10;17.90;;;10.50;;
57667;SDS011;43499;52.366;12.912;2023-05-10T05:52:12;19.00;;;9.93;;
57667;SDS011;43499;52.366;12.912;2023-05-10T05:53:13;13.60;;;8.38;;
57667;SDS011;43499;52.366;12.912;2023-05-10T05:54:14;14.00;;;9.45;;
57667;SDS011;43499;52.366;12.912;2023-05-10T05:55:15;18.08;;;9.93;;
57667;SDS011;43499;52.366;12.912;2023-05-10T05:56:16;16.65;;;8.95;;
57667;SDS011;43499;52.366;12.912;2023-05-10T05:57:24;18.50;;;10.23;;
57667;SDS011;43499;52.366;12.912;2023-05-10T05:58:27;18.52;;;9.50;;
57667;SDS011;43499;52.366;12.912;2023-05-10T05:59:28;18.15;;;8.68;;
57667;SDS011;43499;52.366;12.912;2023-05-10T06:00:29;19.20;;;10.30;;
57667;SDS011;43499;52.366;12.912;2023-05-10T06:01:30;20.00;;;10.35;;
57667;SDS011;43499;52.366;12.912;2023-05-10T06:02:32;19.75;;;9.82;;
57667;SDS011;43499;52.366;12.912;2023-05-10T06:03:33;15.05;;;8.77;;
57667;SDS011;43499;52.366;12.912;2023-05-10T06:04:34;18.40;;;10.18;;
57667;SDS011;43499;52.366;12.912;2023-05-10T06:05:35;15.75;;;9.52;;
57667;SDS011;43499;52.366;12.912;2023-05-10T06:06:36;18.20;;;9.60;;
57667;SDS011;43499;52.366;12.912;2023-05-10T06:07:37;14.50;;;8.98;;
57667;SDS011;43499;52.366;12.912;2023-05-10T06:08:38;15.18;;;8.68;;
57667;SDS011;43499;52.366;12.912;2023-05-10T06:09:39;14.98;;;8.95;;
57667;SDS011;43499;52.366;12.912;2023-05-10T06:10:40;20.45;;;10.00;;
57667;SDS011;43499;52.366;12.912;2023-05-10T06:11:41;15.48;;;8.80;;
57667;SDS011;43499;52.366;12.912;2023-05-10T06:12:42;21.70;;;9.90;;
57667;SDS011;43499;52.366;12.912;2023-05-10T06:13:43;17.45;;;9.07;;
57667;SDS011;43499;52.366;12.912;2023-05-10T06:14:45;15.27;;;9.10;;
57667;SDS011;43499;52.366;12.912;2023-05-10T06:15:46;14.73;;;9.35;;
57667;SDS011;43499;52.366;12.912;2023-05-10T06:16:47;17.27;;;9.23;;
57667;SDS011;43499;52.366;12.912;2023-05-10T06:17:48;16.83;;;9.23;;